EST,Max TemperatureF,Mean TemperatureF,Min TemperatureF,Max Dew PointF,MeanDew PointF,Min DewpointF,Max Humidity, Mean Humidity, Min Humidity, Max Sea Level PressureIn, Mean Sea Level PressureIn, Min Sea Level PressureIn, Max VisibilityMiles, Mean VisibilityMiles, Min VisibilityMiles, Max Wind SpeedMPH, Mean Wind SpeedMPH, Max Gust SpeedMPH,PrecipitationIn, CloudCover, Events, WindDirDegrees
2013-2-1,21,12,6,10,4,-2,79,65,53,30.51,30.40,30.24,10,10,3,21,12,26,0.00,2,,259
2013-2-2,35,27,19,25,20,10,86,70,56,30.32,30.15,30.05,10,9,3,16,9,18,0.00,5,,229
2013-2-3,32,26,21,27,20,16,93,77,60,30.17,30.09,30.00,10,8,1,21,7,28,0.00,6,,272
2013-2-4,39,30,21,36,27,16,93,79,61,30.14,29.95,29.85,10,10,5,18,7,26,0.03,4,,183
2013-2-5,48,37,26,37,30,23,93,78,62,30.07,29.96,29.90,10,8,2,15,7,21,0.00,2,,272
2013-2-6,44,36,28,30,28,23,86,72,57,30.28,30.19,30.08,10,10,7,12,7,17,0.00,0,,11
2013-2-7,62,48,35,46,36,28,82,65,48,30.15,30.00,29.85,10,10,5,15,6,17,0.18,1,,152
2013-2-8,48,42,33,46,29,25,93,76,70,30.38,30.19,29.88,10,10,5,20,13,26,0.03,8,,336
2013-2-9,46,35,24,28,25,19,86,67,49,30.41,30.32,30.14,10,10,10,10,6,,0.00,1,,86
2013-2-10,53,46,39,48,39,25,88,73,53,30.14,29.93,29.77,10,10,9,25,12,34,0.23,5,,155
2013-2-11,53,45,35,48,32,27,88,62,47,30.14,30.00,29.80,10,10,10,26,15,33,0.00,0,,248
2013-2-12,48,37,26,30,27,23,86,65,50,30.18,30.09,29.92,10,10,10,8,4,,0.00,0,,310
2013-2-13,42,37,32,32,30,27,87,76,61,29.93,29.88,29.81,10,8,0,10,7,17,0.08,3,,274
2013-2-14,55,44,33,39,34,30,93,74,51,30.05,29.94,29.90,10,9,4,23,11,26,0.00,4,,224
2013-2-15,39,32,24,32,25,18,87,70,48,30.22,30.14,30.04,10,10,9,17,6,24,0.00,4,,300
2013-2-16,33,26,21,19,15,10,80,63,44,30.20,30.17,30.14,10,10,10,18,6,29,0.00,1,,306
2013-2-17,39,28,17,19,15,12,80,62,41,30.28,30.20,30.13,10,10,10,12,5,,0.00,0,,201
2013-2-18,60,46,32,43,31,18,87,58,34,30.13,29.94,29.70,10,10,8,30,14,40,0.37,3,,171
2013-2-19,46,35,24,43,22,14,87,67,52,30.24,30.04,29.72,10,10,7,32,20,39,0.00,5,,284
2013-2-20,28,24,19,16,13,9,68,62,54,30.38,30.31,30.25,10,10,10,12,8,,0.00,0,,331
2013-2-21,35,27,19,28,19,12,87,70,48,30.32,30.17,29.92,10,10,4,23,9,31,0.16,3,,63
2013-2-22,42,38,33,36,33,27,93,83,70,30.06,29.94,29.84,10,8,2,18,12,23,0.00,8,,215
2013-2-23,42,33,24,27,23,19,80,66,49,30.05,30.02,29.96,10,10,10,10,6,,0.00,1,,289
2013-2-24,46,32,21,28,23,18,93,67,49,30.17,30.11,30.02,10,10,5,17,4,26,0.00,0,,357
2013-2-25,50,39,28,28,25,21,86,59,40,30.10,29.99,29.72,10,10,10,20,9,28,0.00,1,,66
2013-2-26,48,44,39,45,36,23,93,78,43,29.70,29.49,29.39,10,8,2,22,15,31,0.64,8,,151
2013-2-27,39,36,33,36,30,28,87,80,70,29.83,29.74,29.59,10,8,2,21,14,26,0.04,8,,244
2013-2-28,37,34,32,32,30,27,87,83,75,30.04,29.93,29.82,10,8,2,17,13,23,0.00,8,,278